MET2388 - Rochester to Kansas City

Bombardier Dash-8-Q200
838AH
1 hr 15 mins
294 nm
Scheduled - Daily

Bid/PiRep Status

Bid was submitted on December 16th, 2016 7:55 UTC.
PiRep # 74389: Approved by Dave Nichols on December 20th, 2016 10:17 UTC

Departure

Departing from
Rochester (RST)
Departure gate
A4
Scheduled Departure
GMT 2035
Local 1535
METAR KRST 191754Z 23009KT 10SM CLR M01/M07 A3003 RMK AO2 SLP188 I6000 T10061072 10000 21094 58014
TAF KRST 191720Z 1918/2018 24010KT P6SM FEW250 FM200000 21008KT P6SM SKC

Route Map

Planning Resources

KRST LMN BSQ BSQ4
RST MCW J25 DSM LMN BQS4
KRST ZUTEL DSM STJ MAXEE KMCI
MCW DSM LMN BQS4
KRST DSM KMCI
Route:
OFP Layout:
Units:
Detailed Navlog:
ETOPS Planning:
Plan Stepclimbs:
Runway Analysis:
Include NOTAMS:
FIR NOTAMS:
Flight Maps:

Popularity

Hub Current Bids PiReps this month Total PiReps
KLAX 0 0 0
KBOS 0 0 0
KDFW 0 0 0